Time;durP1;ratioP1;P1;durP2;ratioP2;P2;SDS_P1;SDS_P2;PMS_P1;PMS_P2;Temp;Humidity;BMP_temperature;BMP_pressure;BME280_temperature;BME280_humidity;BME280_pressure;Samples;Min_cycle;Max_cycle;Signal;HPM_P1;HPM_P2
2022/09/06 00:00:18;;;;;;;4.60;1.67;;;;;;;16.82;90.81;100563.28;6296049;28;20626;-74
2022/09/06 00:03:19;;;;;;;3.35;1.50;;;;;;;16.82;90.82;100555.38;6295951;28;20048;-75
2022/09/06 00:06:22;;;;;;;4.25;2.10;;;;;;;16.90;89.92;100557.38;6295987;28;20064;-73
2022/09/06 00:09:24;;;;;;;1.95;1.70;;;;;;;16.84;90.31;100563.97;6294742;28;20041;-74
2022/09/06 00:12:25;;;;;;;5.75;1.60;;;;;;;16.85;90.10;100560.38;6295818;28;20127;-75
2022/09/06 00:15:26;;;;;;;4.43;2.03;;;;;;;16.82;91.60;100547.47;6294492;28;20036;-74
2022/09/06 00:18:30;;;;;;;3.97;1.75;;;;;;;16.74;90.17;100549.81;6294408;28;20432;-75
2022/09/06 00:21:34;;;;;;;3.05;1.92;;;;;;;16.79;96.03;100558.19;6295485;28;20098;-74
2022/09/06 00:24:36;;;;;;;1.88;1.52;;;;;;;16.77;88.71;100546.09;6295506;28;20036;-75
2022/09/06 00:27:37;;;;;;;7.70;1.90;;;;;;;16.83;92.60;100535.09;6295239;28;20048;-74
2022/09/06 00:30:37;;;;;;;2.22;1.60;;;;;;;16.84;90.94;100544.69;6295357;28;20044;-74
2022/09/06 00:33:38;;;;;;;2.10;1.50;;;;;;;16.90;90.40;100544.19;6295397;28;20047;-75
2022/09/06 00:36:39;;;;;;;4.60;1.70;;;;;;;16.83;88.01;100533.31;6294104;28;20040;-74
2022/09/06 00:39:40;;;;;;;1.95;1.52;;;;;;;16.71;87.48;100526.34;6295279;28;20052;-74
2022/09/06 00:42:43;;;;;;;2.95;1.63;;;;;;;16.69;90.08;100518.56;6295159;28;20044;-74
2022/09/06 00:45:44;;;;;;;3.72;1.58;;;;;;;16.83;91.86;100516.66;6295144;28;20036;-74
2022/09/06 00:48:48;;;;;;;2.15;1.50;;;;;;;16.72;90.64;100512.22;6294051;28;20097;-75
2022/09/06 00:52:04;;;;;;;3.05;1.52;;;;;;;16.71;91.55;100531.59;6295041;28;20681;-74
2022/09/06 00:55:06;;;;;;;7.15;1.50;;;;;;;16.71;88.20;100523.72;6294975;28;20401;-73
2022/09/06 00:58:08;;;;;;;2.72;1.55;;;;;;;16.65;90.92;100530.28;6295068;28;20476;-73
2022/09/06 01:01:09;;;;;;;1.30;1.20;;;;;;;16.60;89.41;100529.00;6294931;28;20071;-73
2022/09/06 01:04:10;;;;;;;2.47;1.35;;;;;;;16.56;89.79;100525.75;6294883;28;20040;-74
2022/09/06 01:07:47;;;;;;;3.45;1.65;;;;;;;16.54;90.79;100535.59;6294864;28;20486;-73
2022/09/06 01:11:00;;;;;;;3.10;1.63;;;;;;;16.49;92.79;100543.00;6293579;28;20067;-74
2022/09/06 01:14:01;;;;;;;2.22;1.40;;;;;;;16.29;92.56;100548.03;6293605;28;20408;-74
2022/09/06 01:17:10;;;;;;;2.85;1.55;;;;;;;16.37;93.17;100536.03;6293410;28;20048;-75
2022/09/06 01:20:26;;;;;;;3.08;1.70;;;;;;;16.26;90.64;100545.63;6293368;28;20167;-73
2022/09/06 01:23:30;;;;;;;2.10;1.70;;;;;;;16.19;93.46;100543.59;6293386;28;20047;-72
2022/09/06 01:26:48;;;;;;;3.47;1.42;;;;;;;16.31;91.09;100545.28;6294904;28;20044;-73
2022/09/06 01:30:04;;;;;;;2.38;1.38;;;;;;;16.21;90.12;100541.69;6293250;28;20477;-73
2022/09/06 01:33:07;;;;;;;1.85;1.55;;;;;;;16.13;89.00;100544.06;6294680;28;20084;-74
2022/09/06 01:36:17;;;;;;;3.17;1.60;;;;;;;16.13;90.87;100544.88;6293193;28;20500;-74
2022/09/06 01:39:26;;;;;;;2.08;1.58;;;;;;;16.20;89.70;100545.25;6294859;28;20053;-73
2022/09/06 01:42:33;;;;;;;4.55;1.58;;;;;;;16.07;88.33;100543.56;6299206;28;20044;-73
2022/09/06 01:45:50;;;;;;;2.08;1.48;;;;;;;16.12;88.87;100537.94;6297982;28;20488;-73
2022/09/06 01:49:21;;;;;;;2.28;1.48;;;;;;;16.06;88.20;100538.41;6297879;28;20475;-72
2022/09/06 01:52:32;;;;;;;4.57;1.90;;;;;;;15.93;87.80;100535.03;6298944;28;20068;-73
2022/09/06 01:56:03;;;;;;;3.38;1.73;;;;;;;15.90;87.78;100525.59;6297721;28;20047;-73
2022/09/06 01:59:13;;;;;;;1.63;1.40;;;;;;;15.80;88.96;100535.13;6298868;28;20119;-73
2022/09/06 02:02:25;;;;;;;6.85;2.05;;;;;;;15.69;90.04;100531.47;6299372;28;20079;-72
2022/09/06 02:05:59;;;;;;;2.80;1.70;;;;;;;15.67;91.24;100522.88;6297503;28;20119;-74
2022/09/06 02:09:05;;;;;;;2.15;1.58;;;;;;;15.58;89.56;100525.34;6298501;28;20047;-75
2022/09/06 02:12:11;;;;;;;2.20;1.50;;;;;;;15.37;89.54;100525.16;6298488;28;20043;-75
2022/09/06 02:15:27;;;;;;;4.07;1.95;;;;;;;15.32;89.60;100521.06;6301748;28;20408;-74
2022/09/06 02:18:41;;;;;;;2.85;1.52;;;;;;;15.30;90.55;100515.09;6307574;28;20102;-74
2022/09/06 02:21:47;;;;;;;3.78;2.30;;;;;;;15.21;90.27;100518.38;6297425;28;20044;-73
2022/09/06 02:24:52;;;;;;;4.28;1.85;;;;;;;15.22;89.79;100516.59;6298357;28;20396;-73
2022/09/06 02:27:54;;;;;;;3.92;1.70;;;;;;;15.10;89.77;100521.78;6297104;28;20062;-73
2022/09/06 02:30:59;;;;;;;2.63;2.17;;;;;;;14.99;89.82;100515.63;6304107;28;20124;-73
2022/09/06 02:34:01;;;;;;;2.13;1.83;;;;;;;14.95;90.52;100509.78;6323269;28;20047;-72
2022/09/06 02:37:02;;;;;;;2.00;1.60;;;;;;;15.00;90.37;100505.00;6321700;28;20032;-72
2022/09/06 02:40:03;;;;;;;2.05;1.58;;;;;;;15.03;89.45;100520.56;6321981;28;20496;-73
2022/09/06 02:43:04;;;;;;;2.30;1.97;;;;;;;15.01;89.83;100518.97;6323044;28;20036;-72
2022/09/06 02:46:05;;;;;;;2.42;1.75;;;;;;;15.03;90.11;100515.31;6323005;28;20066;-74
2022/09/06 02:49:06;;;;;;;2.42;1.70;;;;;;;15.00;87.48;100517.31;6355810;27;20040;-74
2022/09/06 02:52:07;;;;;;;3.25;1.83;;;;;;;14.91;87.28;100513.56;6338168;28;20048;-75
2022/09/06 02:55:08;;;;;;;4.97;1.95;;;;;;;14.99;87.27;100516.47;6322728;28;20123;-74
2022/09/06 02:58:10;;;;;;;2.67;1.90;;;;;;;14.97;89.42;100507.88;6322640;28;20036;-74
2022/09/06 03:01:11;;;;;;;3.92;1.70;;;;;;;15.01;88.62;100518.97;6322716;28;20500;-74
2022/09/06 03:04:12;;;;;;;4.15;2.05;;;;;;;14.91;87.25;100517.03;6321316;28;20046;-74
2022/09/06 03:07:13;;;;;;;2.72;1.90;;;;;;;14.98;87.23;100519.22;6355384;27;20044;-74
2022/09/06 03:10:14;;;;;;;3.63;1.77;;;;;;;15.05;86.86;100518.66;6321148;28;20048;-74
2022/09/06 03:13:15;;;;;;;6.13;1.95;;;;;;;15.08;86.48;100522.84;6316409;28;20043;-74
2022/09/06 03:16:15;;;;;;;2.10;1.80;;;;;;;15.07;87.35;100518.53;6305359;28;20123;-73
2022/09/06 03:19:16;;;;;;;2.40;1.67;;;;;;;15.10;83.83;100516.53;6297413;28;20049;-74
2022/09/06 03:22:17;;;;;;;3.47;1.85;;;;;;;15.11;85.59;100518.22;6298346;28;20058;-73
2022/09/06 03:25:18;;;;;;;2.47;1.85;;;;;;;15.11;85.32;100517.34;6297061;28;20056;-73
2022/09/06 03:28:20;;;;;;;2.30;1.77;;;;;;;15.17;85.48;100519.53;6298063;28;20063;-72
2022/09/06 03:31:21;;;;;;;;;;;;;;;15.16;89.71;100519.69;6298249;28;20044;-73
2022/09/06 03:34:22;;;;;;;2.38;1.70;;;;;;;15.17;97.16;100524.78;6298083;28;19920;-73
2022/09/06 03:37:25;;;;;;;4.80;2.25;;;;;;;15.19;100.00;100507.13;6297581;28;20051;-74
2022/09/06 03:40:25;;;;;;;3.90;2.15;;;;;;;15.13;100.00;100510.19;6296128;28;20041;-75
2022/09/06 03:43:26;;;;;;;3.47;2.30;;;;;;;15.08;100.00;100515.81;6296789;28;20044;-75
2022/09/06 03:46:29;;;;;;;2.78;1.85;;;;;;;15.08;100.00;100514.97;6297504;28;20391;-74
2022/09/06 03:49:30;;;;;;;3.13;2.00;;;;;;;15.14;100.00;100514.53;6297791;28;20497;-73
2022/09/06 03:52:31;;;;;;;2.55;1.92;;;;;;;15.04;100.00;100514.34;6296137;28;20144;-74
2022/09/06 03:55:34;;;;;;;5.13;2.60;;;;;;;15.00;100.00;100515.50;6297535;28;20404;-73
2022/09/06 03:58:34;;;;;;;3.13;2.20;;;;;;;14.98;100.00;100519.22;6297276;28;20040;-73
2022/09/06 04:01:35;;;;;;;3.50;2.13;;;;;;;14.99;100.00;100518.25;6296738;28;20072;-72
2022/09/06 04:04:36;;;;;;;4.35;2.17;;;;;;;14.89;100.00;100518.09;6312854;28;20481;-73
2022/09/06 04:07:37;;;;;;;2.33;1.65;;;;;;;14.86;100.00;100519.13;6297181;28;20066;-74
2022/09/06 04:10:37;;;;;;;3.10;1.98;;;;;;;14.77;100.00;100522.41;6297321;28;20048;-74
2022/09/06 04:13:38;;;;;;;4.80;2.70;;;;;;;14.67;100.00;100540.63;6295712;28;20450;-72
2022/09/06 04:16:39;;;;;;;2.63;2.03;;;;;;;14.78;100.00;100539.84;6296974;28;20135;-74
2022/09/06 04:19:40;;;;;;;3.30;2.10;;;;;;;14.79;100.00;100552.06;6296841;28;20045;-73
2022/09/06 04:22:41;;;;;;;5.18;2.08;;;;;;;14.68;100.00;100554.56;6297006;28;20064;-74
2022/09/06 04:25:50;;;;;;;6.75;2.60;;;;;;;14.60;98.62;100555.13;6296815;28;20048;-73
2022/09/06 04:28:53;;;;;;;3.83;2.50;;;;;;;14.59;96.81;100555.22;6295614;28;20048;-73
2022/09/06 04:31:57;;;;;;;3.67;2.30;;;;;;;14.57;99.52;100557.97;6295794;28;20044;-72
2022/09/06 04:34:58;;;;;;;3.95;2.28;;;;;;;14.64;96.54;100561.84;6295534;28;20047;-72
2022/09/06 04:38:03;;;;;;;3.75;2.20;;;;;;;14.64;95.53;100553.97;6296339;28;20040;-73
2022/09/06 04:41:05;;;;;;;2.47;2.05;;;;;;;14.64;95.12;100550.50;6296422;28;20093;-73
2022/09/06 04:44:06;;;;;;;;;;;;;;;14.68;96.43;100542.31;6296808;28;20044;-72
2022/09/06 04:47:13;;;;;;;3.05;1.90;;;;;;;14.74;97.59;100519.16;6337716;27;19965;-73
2022/09/06 04:50:14;;;;;;;2.00;1.55;;;;;;;14.84;99.26;100521.03;6317501;28;20067;-74
2022/09/06 04:53:15;;;;;;;3.97;2.40;;;;;;;14.98;99.15;100520.03;6352895;27;20093;-74
2022/09/06 04:56:23;;;;;;;2.80;1.77;;;;;;;15.03;99.40;100522.34;6318681;28;20097;-73
2022/09/06 04:59:24;;;;;;;3.00;1.85;;;;;;;15.10;96.62;100526.22;6320130;28;20040;-73
2022/09/06 05:02:25;;;;;;;3.05;1.83;;;;;;;15.09;94.50;100533.25;6297931;28;20094;-72
2022/09/06 05:05:25;;;;;;;3.25;2.13;;;;;;;15.19;93.47;100540.47;6294919;28;20051;-72
2022/09/06 05:08:29;;;;;;;3.20;1.88;;;;;;;15.37;93.46;100540.91;6293637;28;20198;-72
2022/09/06 05:11:32;;;;;;;2.15;1.73;;;;;;;15.61;94.35;100541.75;6294703;28;20481;-72
2022/09/06 05:14:33;;;;;;;4.35;1.65;;;;;;;15.75;95.96;100546.00;6316530;28;20048;-74
2022/09/06 05:17:34;;;;;;;3.40;1.70;;;;;;;15.76;89.94;100552.09;6312046;28;20048;-74
2022/09/06 05:20:35;;;;;;;2.28;1.92;;;;;;;15.77;91.37;100559.84;6316759;28;20060;-74
2022/09/06 05:23:36;;;;;;;4.63;2.15;;;;;;;15.77;89.10;100548.50;6357909;27;20533;-74
2022/09/06 05:26:39;;;;;;;4.70;2.13;;;;;;;15.85;89.73;100551.41;6305704;28;20036;-73
2022/09/06 05:29:40;;;;;;;3.33;2.05;;;;;;;15.88;90.18;100553.81;6307211;28;20048;-72
2022/09/06 05:32:41;;;;;;;3.30;1.83;;;;;;;15.86;89.89;100543.41;6306477;28;20086;-75
2022/09/06 05:35:42;;;;;;;2.78;1.83;;;;;;;15.80;89.23;100562.28;6318251;28;20036;-74
2022/09/06 05:38:42;;;;;;;4.43;2.47;;;;;;;15.74;91.40;100560.09;6321326;28;20060;-74
2022/09/06 05:41:43;;;;;;;3.65;2.13;;;;;;;15.80;89.59;100545.66;6319372;28;20040;-75
2022/09/06 05:44:44;;;;;;;3.65;2.15;;;;;;;15.80;90.50;100549.13;6299823;28;20060;-74
2022/09/06 05:47:47;;;;;;;4.38;2.05;;;;;;;15.74;90.93;100546.94;6313944;28;20050;-74
2022/09/06 05:51:02;;;;;;;1.83;1.67;;;;;;;15.91;93.59;100551.78;6298245;28;20068;-74
2022/09/06 05:54:03;;;;;;;3.13;1.92;;;;;;;15.82;88.53;100546.38;6298370;28;20472;-74
2022/09/06 05:57:04;;;;;;;2.65;1.70;;;;;;;15.83;89.46;100543.63;6296814;28;20043;-75
2022/09/06 06:00:06;;;;;;;2.38;1.77;;;;;;;15.92;91.33;100539.47;6298211;28;20464;-74
2022/09/06 06:03:07;;;;;;;3.55;1.67;;;;;;;15.88;90.88;100549.38;6298697;28;20451;-74
2022/09/06 06:06:08;;;;;;;3.08;2.03;;;;;;;15.96;91.62;100554.06;6297490;28;20105;-74
2022/09/06 06:09:09;;;;;;;2.47;1.90;;;;;;;16.02;91.91;100558.88;6297212;28;20404;-73
2022/09/06 06:12:09;;;;;;;2.45;1.80;;;;;;;16.01;90.09;100551.91;6298469;28;20040;-74
2022/09/06 06:15:10;;;;;;;3.95;2.08;;;;;;;16.03;91.55;100551.81;6297213;28;20039;-74
2022/09/06 06:18:11;;;;;;;2.28;1.65;;;;;;;16.02;91.36;100548.34;6297074;28;20471;-74
2022/09/06 06:21:14;;;;;;;5.72;2.10;;;;;;;16.03;92.14;100557.06;6297111;28;20052;-74
2022/09/06 06:24:15;;;;;;;1.92;1.63;;;;;;;16.13;91.79;100552.78;6296212;28;20053;-74
2022/09/06 06:27:16;;;;;;;2.47;1.63;;;;;;;16.19;92.31;100554.94;6298210;28;20037;-75
2022/09/06 06:30:17;;;;;;;2.58;1.90;;;;;;;16.12;90.91;100543.19;6296779;28;20476;-74
2022/09/06 06:33:18;;;;;;;2.83;2.28;;;;;;;16.22;92.43;100546.81;6296802;28;20057;-73
2022/09/06 06:36:21;;;;;;;2.55;1.70;;;;;;;16.15;92.16;100542.97;6298058;28;20047;-73
2022/09/06 06:39:22;;;;;;;2.22;1.77;;;;;;;16.28;90.96;100556.88;6297661;28;20053;-73
2022/09/06 06:42:23;;;;;;;3.47;1.90;;;;;;;16.34;91.86;100555.56;6296522;28;20175;-73
2022/09/06 06:45:25;;;;;;;2.55;1.58;;;;;;;16.40;93.40;100552.44;6296456;28;20110;-73
2022/09/06 06:48:25;;;;;;;1.80;1.65;;;;;;;16.44;92.24;100558.31;6297629;28;20489;-73
2022/09/06 06:51:31;;;;;;;3.72;1.85;;;;;;;16.31;92.60;100561.91;6313096;28;20106;-73
2022/09/06 06:54:31;;;;;;;4.15;1.80;;;;;;;16.32;94.59;100568.00;6297519;28;20047;-75
2022/09/06 06:57:32;;;;;;;3.03;2.05;;;;;;;16.37;96.22;100557.09;6297420;28;20037;-74
2022/09/06 07:00:33;;;;;;;2.72;2.00;;;;;;;16.49;95.74;100551.75;6312917;28;20140;-74
2022/09/06 07:03:35;;;;;;;2.65;1.85;;;;;;;16.50;96.41;100547.31;6315046;28;20153;-74
2022/09/06 07:06:55;;;;;;;2.92;2.03;;;;;;;16.49;100.00;100558.78;6328293;28;20052;-74
2022/09/06 07:09:56;;;;;;;2.63;2.00;;;;;;;16.51;100.00;100560.38;6322210;28;20040;-75
2022/09/06 07:12:57;;;;;;;4.57;2.20;;;;;;;16.68;100.00;100566.94;6322330;28;20404;-73
2022/09/06 07:16:28;;;;;;;3.28;2.08;;;;;;;16.78;100.00;100563.56;6320817;28;20055;-74
2022/09/06 07:19:29;;;;;;;4.68;2.38;;;;;;;16.95;100.00;100557.84;6299572;28;20121;-74
2022/09/06 07:22:30;;;;;;;3.22;2.10;;;;;;;16.95;99.06;100563.13;6295792;28;20072;-75
2022/09/06 07:25:31;;;;;;;2.50;1.98;;;;;;;17.07;97.38;100567.41;6295641;28;20045;-74
2022/09/06 07:28:35;;;;;;;;;;;;;;;17.33;100.00;100573.19;6279504;28;20102;-74
2022/09/06 07:31:39;;;;;;;2.78;1.63;;;;;;;17.53;98.73;100563.66;6312201;28;20356;-73
2022/09/06 07:34:40;;;;;;;2.47;1.98;;;;;;;17.71;94.50;100568.41;6329340;28;20048;-74
2022/09/06 07:37:41;;;;;;;4.50;2.33;;;;;;;17.83;96.03;100569.19;6328157;28;20512;-75
2022/09/06 07:40:42;;;;;;;2.42;1.67;;;;;;;17.70;89.20;100569.34;6278725;28;20055;-74
2022/09/06 07:43:43;;;;;;;2.67;2.10;;;;;;;17.82;90.33;100570.16;6295252;28;20438;-74
2022/09/06 07:46:44;;;;;;;3.08;2.10;;;;;;;17.90;87.71;100581.78;6278433;28;20489;-74
2022/09/06 07:49:47;;;;;;;2.75;2.22;;;;;;;18.12;91.22;100575.53;6311788;28;20070;-74
2022/09/06 07:52:47;;;;;;;7.28;2.05;;;;;;;17.98;87.97;100580.31;6296264;28;20049;-75
2022/09/06 07:55:48;;;;;;;2.22;1.70;;;;;;;18.04;85.62;100574.50;6295090;28;20119;-75
2022/09/06 07:58:50;;;;;;;4.07;2.75;;;;;;;18.05;87.04;100578.81;6302703;28;20052;-74
2022/09/06 08:01:52;;;;;;;9.15;2.90;;;;;;;18.19;85.79;100575.84;6319999;28;20054;-75
2022/09/06 08:04:53;;;;;;;10.43;4.67;;;;;;;18.09;86.29;100577.59;6321477;28;20074;-74
2022/09/06 08:07:53;;;;;;;10.00;5.80;;;;;;;18.21;86.70;100584.47;6321127;28;20126;-75
2022/09/06 08:10:54;;;;;;;10.98;5.25;;;;;;;18.21;86.01;100586.28;6302738;28;20397;-74
2022/09/06 08:13:58;;;;;;;7.13;3.90;;;;;;;18.45;86.30;100586.84;6319848;28;20274;-75
2022/09/06 08:17:00;;;;;;;8.60;4.10;;;;;;;18.91;82.52;100576.75;6319610;28;20085;-76
2022/09/06 08:20:03;;;;;;;8.05;3.95;;;;;;;19.20;82.92;100574.16;6320921;28;20071;-75
2022/09/06 08:23:10;;;;;;;6.93;3.00;;;;;;;19.85;83.07;100568.34;6319539;28;20044;-75
2022/09/06 08:26:11;;;;;;;3.15;2.28;;;;;;;20.35;73.87;100580.53;6320628;28;20039;-74
2022/09/06 08:29:12;;;;;;;3.90;2.07;;;;;;;20.46;74.93;100575.88;6319338;28;20472;-73
2022/09/06 08:32:13;;;;;;;3.25;1.83;;;;;;;20.64;68.60;100567.22;6320480;28;20040;-73
2022/09/06 08:35:14;;;;;;;2.95;1.90;;;;;;;20.82;70.02;100568.09;6319234;28;20044;-73
2022/09/06 08:38:15;;;;;;;2.27;1.87;;;;;;;21.05;67.07;100565.88;6320110;28;20050;-73
2022/09/06 08:41:15;;;;;;;2.03;1.63;;;;;;;21.38;66.62;100560.91;6320317;28;20507;-73
2022/09/06 08:44:25;;;;;;;4.07;1.57;;;;;;;21.51;66.81;100560.53;6319152;28;20036;-73
2022/09/06 08:47:26;;;;;;;1.70;1.25;;;;;;;21.71;65.60;100555.91;6318792;28;20497;-73
2022/09/06 08:50:27;;;;;;;2.47;1.70;;;;;;;21.71;63.13;100551.41;6318869;28;20040;-73
2022/09/06 08:53:29;;;;;;;;;;;;;;;21.82;62.06;100549.50;6302564;28;20052;-72
2022/09/06 08:56:42;;;;;;;2.10;1.70;;;;;;;22.26;61.80;100546.84;6318933;28;20322;-73
2022/09/06 08:59:43;;;;;;;1.77;1.45;;;;;;;22.62;69.40;100549.34;6318806;28;20040;-73
2022/09/06 09:02:50;;;;;;;5.53;1.83;;;;;;;22.20;66.94;100553.59;6320026;28;20043;-73
2022/09/06 09:05:55;;;;;;;3.20;1.98;;;;;;;22.18;66.34;100552.09;6314353;28;20131;-73
2022/09/06 09:09:04;;;;;;;4.93;1.67;;;;;;;22.66;66.20;100550.69;6302348;28;20044;-73
2022/09/06 09:12:07;;;;;;;2.58;1.83;;;;;;;23.16;61.34;100536.56;6340781;27;20067;-73
2022/09/06 09:15:12;;;;;;;2.20;1.50;;;;;;;23.57;64.15;100533.94;6299276;28;20033;-73
2022/09/06 09:18:17;;;;;;;2.03;1.50;;;;;;;23.77;58.84;100534.47;6299803;28;20049;-73
2022/09/06 09:21:23;;;;;;;1.67;1.40;;;;;;;24.24;56.00;100543.53;6292754;28;20056;-73
2022/09/06 09:24:24;;;;;;;1.90;1.23;;;;;;;24.21;51.41;100533.22;6293308;28;20055;-73
2022/09/06 09:27:27;;;;;;;3.57;1.63;;;;;;;24.41;54.74;100533.66;6303516;28;20063;-74
2022/09/06 09:30:48;;;;;;;1.77;1.48;;;;;;;24.43;49.83;100537.81;6317910;28;20044;-73
2022/09/06 09:33:49;;;;;;;4.00;1.87;;;;;;;24.69;47.56;100537.56;6318405;28;20134;-76
2022/09/06 09:37:29;;;;;;;2.53;1.60;;;;;;;24.59;49.73;100534.28;6301628;28;20174;-73
2022/09/06 09:40:33;;;;;;;2.05;1.63;;;;;;;25.04;43.69;100523.84;6301090;28;20051;-75
2022/09/06 09:43:53;;;;;;;2.40;1.60;;;;;;;25.37;51.96;100523.66;6318524;28;20424;-75
2022/09/06 09:46:53;;;;;;;2.13;1.42;;;;;;;25.47;48.75;100516.22;6319885;28;20044;-75
2022/09/06 09:49:57;;;;;;;1.33;1.20;;;;;;;25.67;44.39;100513.88;6301634;28;20526;-75
2022/09/06 09:53:09;;;;;;;1.48;1.20;;;;;;;25.73;43.50;100510.50;6319629;28;20051;-74
2022/09/06 09:56:13;;;;;;;1.58;1.10;;;;;;;25.73;41.25;100511.31;6319299;28;20044;-73
2022/09/06 09:59:21;;;;;;;1.17;1.08;;;;;;;25.92;37.98;100511.84;6319058;28;20575;-73
2022/09/06 10:02:27;;;;;;;1.95;1.05;;;;;;;26.10;44.05;100512.31;6323979;28;20086;-74
2022/09/06 10:05:27;;;;;;;1.95;1.25;;;;;;;25.84;38.93;100499.38;6324089;28;20101;-76
2022/09/06 10:08:32;;;;;;;1.17;1.00;;;;;;;26.36;40.72;100502.16;6322774;28;20052;-73
2022/09/06 10:11:51;;;;;;;6.45;1.30;;;;;;;26.61;40.10;100502.72;6322497;28;20496;-73
2022/09/06 10:14:54;;;;;;;1.38;1.15;;;;;;;26.90;41.29;100501.81;6323692;28;20036;-75
2022/09/06 10:17:55;;;;;;;1.25;1.08;;;;;;;26.97;39.21;100502.69;6305753;28;20056;-75
2022/09/06 10:21:09;;;;;;;5.40;1.48;;;;;;;27.50;39.44;100495.19;6305630;28;20432;-75
2022/09/06 10:24:23;;;;;;;1.65;1.20;;;;;;;27.48;39.52;100485.69;6322297;28;20040;-75
2022/09/06 10:27:29;;;;;;;1.67;1.42;;;;;;;26.89;39.13;100484.94;6297881;28;20051;-75
2022/09/06 10:30:37;;;;;;;2.15;1.10;;;;;;;26.08;40.42;100486.78;6312158;28;20048;-75
2022/09/06 10:33:55;;;;;;;1.67;1.13;;;;;;;25.54;47.55;100483.28;6280037;28;20056;-75
2022/09/06 10:37:30;;;;;;;1.40;1.30;;;;;;;25.20;46.10;100477.53;6313548;28;20049;-75
2022/09/06 10:40:40;;;;;;;2.17;1.08;;;;;;;24.91;47.54;100487.06;6296820;28;20037;-75
2022/09/06 10:43:56;;;;;;;2.33;1.25;;;;;;;25.02;48.37;100481.34;6306681;28;20499;-75
2022/09/06 10:47:11;;;;;;;1.80;1.10;;;;;;;24.98;48.25;100481.84;6318711;28;20452;-75
2022/09/06 10:50:13;;;;;;;1.17;0.82;;;;;;;25.10;44.48;100480.44;6321644;28;20131;-75
2022/09/06 10:53:20;;;;;;;3.03;1.35;;;;;;;25.39;46.35;100479.75;6320460;28;20036;-75
2022/09/06 10:56:24;;;;;;;2.78;1.00;;;;;;;25.66;41.02;100478.34;6297412;28;20045;-74
2022/09/06 10:59:29;;;;;;;8.23;1.58;;;;;;;25.50;46.03;100471.28;6313166;28;20139;-74
2022/09/06 11:02:39;;;;;;;1.40;1.13;;;;;;;25.22;46.24;100468.34;6313012;28;20055;-75
2022/09/06 11:05:44;;;;;;;1.35;1.02;;;;;;;25.13;49.35;100466.72;6297331;28;20044;-75
2022/09/06 11:09:05;;;;;;;1.10;1.00;;;;;;;25.34;46.43;100464.25;6296102;28;20493;-75
2022/09/06 11:12:13;;;;;;;2.33;1.17;;;;;;;25.04;42.64;100451.78;6310841;28;20047;-73
2022/09/06 11:15:17;;;;;;;1.90;1.10;;;;;;;25.03;45.64;100455.47;6322420;28;20495;-74
2022/09/06 11:18:21;;;;;;;2.60;0.98;;;;;;;24.96;45.78;100457.16;6319057;28;20056;-74
2022/09/06 11:21:59;;;;;;;1.05;1.00;;;;;;;25.90;43.32;100458.56;6316336;28;20055;-74
2022/09/06 11:25:34;;;;;;;1.33;1.08;;;;;;;25.55;39.75;100454.72;6322199;28;20047;-75
2022/09/06 11:28:40;;;;;;;1.83;1.40;;;;;;;25.81;45.07;100456.97;6303662;28;20075;-76
2022/09/06 11:31:55;;;;;;;2.05;1.23;;;;;;;25.87;43.74;100456.22;6309255;28;20389;-73
2022/09/06 11:34:58;;;;;;;1.85;1.30;;;;;;;26.02;47.02;100442.88;6329476;28;20052;-75
2022/09/06 11:38:16;;;;;;;1.50;1.20;;;;;;;26.16;44.34;100446.56;6295277;28;20052;-75
2022/09/06 11:41:17;;;;;;;1.55;1.30;;;;;;;26.28;43.23;100444.25;6296398;28;20048;-75
2022/09/06 11:44:49;;;;;;;1.90;1.35;;;;;;;25.81;41.72;100440.09;6278645;28;20048;-75
2022/09/06 11:47:50;;;;;;;;;;;;;;;25.85;43.07;100434.19;6295714;28;20045;-75
2022/09/06 11:50:54;;;;;;;1.50;1.10;;;;;;;25.73;46.22;100441.84;6294993;28;19920;-73
2022/09/06 11:54:02;;;;;;;2.67;1.05;;;;;;;25.51;44.73;100437.38;6296806;28;20044;-74
2022/09/06 11:57:16;;;;;;;2.45;1.35;;;;;;;25.16;46.91;100430.84;6296371;28;20055;-74
2022/09/06 12:00:22;;;;;;;1.30;1.20;;;;;;;25.02;46.86;100429.75;6311602;28;20044;-74
2022/09/06 12:03:41;;;;;;;1.13;1.02;;;;;;;24.97;45.06;100429.50;6278065;28;20390;-74
2022/09/06 12:07:08;;;;;;;1.48;1.38;;;;;;;24.91;46.50;100425.69;6303650;28;20048;-75
2022/09/06 12:10:30;;;;;;;1.40;0.98;;;;;;;24.89;47.33;100430.38;6311706;28;20039;-74
2022/09/06 12:13:47;;;;;;;1.70;1.15;;;;;;;24.99;47.05;100422.13;6309717;28;20484;-73
2022/09/06 12:16:56;;;;;;;3.40;1.35;;;;;;;25.13;47.99;100418.69;6296868;28;20048;-75
2022/09/06 12:20:06;;;;;;;1.38;1.20;;;;;;;25.23;47.94;100413.94;6309453;28;20066;-73
2022/09/06 12:23:07;;;;;;;1.50;1.00;;;;;;;25.27;47.22;100412.56;6293883;28;20044;-75
2022/09/06 12:26:09;;;;;;;1.90;1.23;;;;;;;25.36;48.28;100402.66;6294174;28;20051;-75
2022/09/06 12:29:10;;;;;;;3.85;1.20;;;;;;;25.43;49.85;100410.75;6294080;28;20068;-74
2022/09/06 12:32:16;;;;;;;2.10;1.10;;;;;;;25.32;50.06;100404.00;6301360;28;20048;-75
2022/09/06 12:35:23;;;;;;;1.75;1.17;;;;;;;25.36;47.10;100405.31;6303653;28;20065;-73
2022/09/06 12:38:24;;;;;;;1.20;1.00;;;;;;;25.38;48.57;100399.81;6319136;28;20060;-74
2022/09/06 12:41:28;;;;;;;2.35;1.33;;;;;;;25.51;46.88;100391.97;6319296;28;20039;-73
2022/09/06 12:44:40;;;;;;;2.63;1.50;;;;;;;25.30;47.83;100387.34;6302261;28;20052;-72
2022/09/06 12:47:41;;;;;;;3.75;1.33;;;;;;;25.45;46.68;100388.22;6293833;28;20121;-73
2022/09/06 12:50:42;;;;;;;1.40;1.20;;;;;;;25.47;48.41;100386.19;6295009;28;20040;-73
2022/09/06 12:53:57;;;;;;;5.22;1.30;;;;;;;25.56;44.75;100376.25;6309445;28;20795;-73
2022/09/06 12:57:13;;;;;;;3.50;1.08;;;;;;;25.66;42.53;100382.13;6304680;28;20049;-74
2022/09/06 13:00:14;;;;;;;1.15;0.90;;;;;;;25.60;44.67;100376.72;6305412;28;20043;-74
2022/09/06 13:03:23;;;;;;;1.92;1.30;;;;;;;25.65;43.61;100376.97;6302207;28;20056;-73
2022/09/06 13:06:26;;;;;;;2.15;1.23;;;;;;;25.96;42.34;100375.97;6316733;28;20052;-73
2022/09/06 13:09:32;;;;;;;1.63;1.20;;;;;;;26.19;39.92;100367.81;6293831;28;20045;-73
2022/09/06 13:12:36;;;;;;;3.00;1.05;;;;;;;26.21;41.81;100361.28;6294854;28;20068;-74
2022/09/06 13:15:45;;;;;;;4.20;1.20;;;;;;;26.24;40.68;100357.41;6293475;28;20049;-74
2022/09/06 13:18:46;;;;;;;1.40;0.93;;;;;;;26.20;40.42;100356.94;6294711;28;20126;-75
2022/09/06 13:21:48;;;;;;;1.20;1.10;;;;;;;25.86;42.88;100361.03;6293404;28;20197;-75
2022/09/06 13:24:55;;;;;;;3.05;1.50;;;;;;;25.90;43.13;100358.81;6293888;28;20044;-74
2022/09/06 13:28:01;;;;;;;1.63;1.15;;;;;;;25.67;41.92;100354.38;6309624;28;20075;-74
2022/09/06 13:31:18;;;;;;;1.65;0.95;;;;;;;25.66;43.95;100344.72;6316094;28;20040;-72
2022/09/06 13:34:25;;;;;;;3.42;1.10;;;;;;;25.63;43.83;100355.78;6309410;28;20496;-72
2022/09/06 13:37:38;;;;;;;3.33;1.30;;;;;;;25.54;43.64;100352.38;6322749;28;20496;-73
2022/09/06 13:40:42;;;;;;;1.63;1.20;;;;;;;25.69;43.83;100348.88;6308797;28;20477;-73
2022/09/06 13:43:47;;;;;;;1.40;1.20;;;;;;;25.64;45.63;100335.25;6320342;28;20041;-74
2022/09/06 13:46:52;;;;;;;1.75;1.27;;;;;;;25.51;43.40;100333.19;6308070;28;20535;-73
2022/09/06 13:49:54;;;;;;;1.20;1.10;;;;;;;25.81;43.86;100335.88;6314638;28;20102;-73
2022/09/06 13:52:54;;;;;;;2.25;1.35;;;;;;;25.98;41.34;100326.66;6299861;28;20044;-73
2022/09/06 13:55:58;;;;;;;1.88;0.90;;;;;;;26.01;44.41;100315.59;6312286;28;20535;-73
2022/09/06 13:58:59;;;;;;;4.05;1.20;;;;;;;25.91;42.27;100318.56;6332706;28;20404;-73
2022/09/06 14:02:07;;;;;;;1.10;1.00;;;;;;;25.98;43.14;100325.81;6298378;28;20044;-73
2022/09/06 14:05:08;;;;;;;2.63;1.30;;;;;;;25.64;41.15;100314.69;6298648;28;20055;-73
2022/09/06 14:08:11;;;;;;;1.38;1.00;;;;;;;25.68;43.17;100318.66;6280892;28;20056;-72
2022/09/06 14:11:12;;;;;;;1.73;1.33;;;;;;;25.63;42.76;100307.69;6298352;28;20036;-72
2022/09/06 14:14:13;;;;;;;1.27;1.15;;;;;;;25.69;42.93;100309.59;6298364;28;20431;-73
2022/09/06 14:17:17;;;;;;;3.42;1.27;;;;;;;25.56;43.67;100304.09;6297207;28;20041;-72
2022/09/06 14:20:20;;;;;;;1.33;0.98;;;;;;;25.51;43.25;100307.34;6297062;28;20441;-73
2022/09/06 14:23:22;;;;;;;2.13;1.00;;;;;;;25.63;42.55;100301.50;6313773;28;20036;-74